Jacksonville, Illinois
Current Conditions -  °F | °C
As of 8:35 AM on Monday 26 Jan 2015 (Local Time) from KIJX Reporting Station
Overcast Overcast  
Wind Chill: 22°   Ceiling: 2400
Heat Index: 28°   Visibility: 10mi
Dew Point: 23°   Wind: 5mph
Humidity: 82%   Direction: 230°SW
Pressure: 30.03"   Gusts: NA
Location:  39.75°N, 90.23°W
Report Text: KIJX 261435Z AUTO 23004KT 10SM OVC024 M02/M05 A3003 RMK AO2 T10251052
Loading
Personal Weather Stations






























Interactive Weather Map New forecast layout! Learn more

10-Day Weather Forecast

Advertisements
Track Severe Weather on mobile